sensor_id;sensor_type;location;lat;lon;timestamp;P1;durP1;ratioP1;P2;durP2;ratioP2
7003;SDS011;3542;48.812;9.146;2022-08-19T00:00:44;18.17;;;15.60;;
7003;SDS011;3542;48.812;9.146;2022-08-19T00:03:09;16.50;;;14.23;;
7003;SDS011;3542;48.812;9.146;2022-08-19T00:05:35;18.63;;;16.13;;
7003;SDS011;3542;48.812;9.146;2022-08-19T00:08:00;16.20;;;13.93;;
7003;SDS011;3542;48.812;9.146;2022-08-19T00:10:26;15.67;;;14.07;;
7003;SDS011;3542;48.812;9.146;2022-08-19T00:12:52;18.70;;;14.80;;
7003;SDS011;3542;48.812;9.146;2022-08-19T00:15:18;17.40;;;15.43;;
7003;SDS011;3542;48.812;9.146;2022-08-19T00:17:46;20.57;;;15.67;;
7003;SDS011;3542;48.812;9.146;2022-08-19T00:20:13;18.73;;;14.77;;
7003;SDS011;3542;48.812;9.146;2022-08-19T00:22:42;18.43;;;14.83;;
7003;SDS011;3542;48.812;9.146;2022-08-19T00:25:10;15.33;;;13.73;;
7003;SDS011;3542;48.812;9.146;2022-08-19T00:27:36;22.03;;;15.57;;
7003;SDS011;3542;48.812;9.146;2022-08-19T00:30:03;17.30;;;14.60;;
7003;SDS011;3542;48.812;9.146;2022-08-19T00:32:29;19.90;;;16.37;;
7003;SDS011;3542;48.812;9.146;2022-08-19T00:34:55;19.73;;;15.87;;
7003;SDS011;3542;48.812;9.146;2022-08-19T00:37:22;18.77;;;16.00;;
7003;SDS011;3542;48.812;9.146;2022-08-19T00:39:50;16.93;;;14.20;;
7003;SDS011;3542;48.812;9.146;2022-08-19T00:42:16;17.60;;;14.40;;
7003;SDS011;3542;48.812;9.146;2022-08-19T00:44:42;18.60;;;15.83;;
7003;SDS011;3542;48.812;9.146;2022-08-19T00:47:08;19.50;;;14.70;;
7003;SDS011;3542;48.812;9.146;2022-08-19T00:49:35;18.00;;;16.20;;
7003;SDS011;3542;48.812;9.146;2022-08-19T00:52:35;19.10;;;16.07;;
7003;SDS011;3542;48.812;9.146;2022-08-19T00:55:04;16.87;;;14.60;;
7003;SDS011;3542;48.812;9.146;2022-08-19T00:57:36;18.27;;;15.90;;
7003;SDS011;3542;48.812;9.146;2022-08-19T02:30:48;25.30;;;19.83;;
7003;SDS011;3542;48.812;9.146;2022-08-19T02:33:14;26.80;;;19.87;;
7003;SDS011;3542;48.812;9.146;2022-08-19T02:35:46;22.77;;;18.87;;
7003;SDS011;3542;48.812;9.146;2022-08-19T02:38:12;26.07;;;19.90;;
7003;SDS011;3542;48.812;9.146;2022-08-19T02:40:51;25.77;;;19.50;;
7003;SDS011;3542;48.812;9.146;2022-08-19T02:43:20;23.13;;;19.30;;
7003;SDS011;3542;48.812;9.146;2022-08-19T02:45:47;26.43;;;18.90;;
7003;SDS011;3542;48.812;9.146;2022-08-19T02:48:13;30.17;;;21.80;;
7003;SDS011;3542;48.812;9.146;2022-08-19T02:50:42;29.10;;;19.60;;
7003;SDS011;3542;48.812;9.146;2022-08-19T02:53:07;26.40;;;20.40;;
7003;SDS011;3542;48.812;9.146;2022-08-19T02:55:33;24.80;;;19.93;;
7003;SDS011;3542;48.812;9.146;2022-08-19T02:57:59;31.77;;;21.43;;
7003;SDS011;3542;48.812;9.146;2022-08-19T03:00:25;25.87;;;21.10;;
7003;SDS011;3542;48.812;9.146;2022-08-19T03:02:51;29.13;;;21.63;;
7003;SDS011;3542;48.812;9.146;2022-08-19T03:05:17;27.93;;;20.90;;
7003;SDS011;3542;48.812;9.146;2022-08-19T03:07:43;25.63;;;21.40;;
7003;SDS011;3542;48.812;9.146;2022-08-19T03:10:08;33.43;;;24.70;;
7003;SDS011;3542;48.812;9.146;2022-08-19T03:12:35;26.27;;;21.93;;
7003;SDS011;3542;48.812;9.146;2022-08-19T03:15:03;24.13;;;20.67;;
7003;SDS011;3542;48.812;9.146;2022-08-19T03:17:33;31.50;;;23.60;;
7003;SDS011;3542;48.812;9.146;2022-08-19T03:19:59;27.47;;;22.73;;
7003;SDS011;3542;48.812;9.146;2022-08-19T03:22:25;26.70;;;21.70;;
7003;SDS011;3542;48.812;9.146;2022-08-19T03:24:51;28.23;;;22.20;;
7003;SDS011;3542;48.812;9.146;2022-08-19T03:27:16;31.40;;;21.83;;
7003;SDS011;3542;48.812;9.146;2022-08-19T03:29:42;29.50;;;24.00;;
7003;SDS011;3542;48.812;9.146;2022-08-19T03:32:08;34.33;;;25.97;;
7003;SDS011;3542;48.812;9.146;2022-08-19T03:34:36;31.17;;;24.10;;
7003;SDS011;3542;48.812;9.146;2022-08-19T03:37:06;32.27;;;26.07;;
7003;SDS011;3542;48.812;9.146;2022-08-19T03:39:33;32.53;;;25.43;;
7003;SDS011;3542;48.812;9.146;2022-08-19T03:42:00;33.23;;;26.53;;
7003;SDS011;3542;48.812;9.146;2022-08-19T03:44:27;32.83;;;26.20;;
7003;SDS011;3542;48.812;9.146;2022-08-19T03:46:55;32.13;;;25.57;;
7003;SDS011;3542;48.812;9.146;2022-08-19T03:49:23;33.37;;;25.30;;
7003;SDS011;3542;48.812;9.146;2022-08-19T03:51:51;36.37;;;27.10;;
7003;SDS011;3542;48.812;9.146;2022-08-19T03:54:19;36.87;;;25.53;;
7003;SDS011;3542;48.812;9.146;2022-08-19T03:56:48;31.00;;;25.10;;
7003;SDS011;3542;48.812;9.146;2022-08-19T03:59:18;31.03;;;25.27;;
7003;SDS011;3542;48.812;9.146;2022-08-19T04:01:56;32.00;;;24.57;;
7003;SDS011;3542;48.812;9.146;2022-08-19T04:04:24;34.90;;;25.57;;
7003;SDS011;3542;48.812;9.146;2022-08-19T04:06:50;32.27;;;24.80;;
7003;SDS011;3542;48.812;9.146;2022-08-19T04:09:16;32.10;;;25.40;;
7003;SDS011;3542;48.812;9.146;2022-08-19T04:11:44;31.10;;;25.03;;
7003;SDS011;3542;48.812;9.146;2022-08-19T04:14:16;31.53;;;26.30;;
7003;SDS011;3542;48.812;9.146;2022-08-19T04:16:44;32.83;;;25.97;;
7003;SDS011;3542;48.812;9.146;2022-08-19T04:19:11;32.53;;;25.50;;
7003;SDS011;3542;48.812;9.146;2022-08-19T04:21:37;31.97;;;26.07;;
7003;SDS011;3542;48.812;9.146;2022-08-19T04:24:03;28.83;;;24.50;;
7003;SDS011;3542;48.812;9.146;2022-08-19T04:26:30;36.07;;;25.70;;
7003;SDS011;3542;48.812;9.146;2022-08-19T04:28:58;33.40;;;25.40;;
7003;SDS011;3542;48.812;9.146;2022-08-19T04:31:30;33.53;;;26.60;;
7003;SDS011;3542;48.812;9.146;2022-08-19T04:33:59;34.63;;;26.23;;
7003;SDS011;3542;48.812;9.146;2022-08-19T04:36:29;34.40;;;27.27;;
7003;SDS011;3542;48.812;9.146;2022-08-19T04:38:57;34.77;;;27.17;;
7003;SDS011;3542;48.812;9.146;2022-08-19T04:41:24;34.80;;;26.20;;
7003;SDS011;3542;48.812;9.146;2022-08-19T04:44:09;32.47;;;24.73;;
7003;SDS011;3542;48.812;9.146;2022-08-19T04:46:36;34.97;;;27.00;;
7003;SDS011;3542;48.812;9.146;2022-08-19T04:49:02;33.37;;;26.80;;
7003;SDS011;3542;48.812;9.146;2022-08-19T04:51:30;30.97;;;26.80;;
7003;SDS011;3542;48.812;9.146;2022-08-19T04:53:57;33.63;;;26.23;;
7003;SDS011;3542;48.812;9.146;2022-08-19T04:56:24;39.97;;;26.50;;
7003;SDS011;3542;48.812;9.146;2022-08-19T04:58:51;37.20;;;27.20;;
7003;SDS011;3542;48.812;9.146;2022-08-19T05:01:18;34.60;;;25.90;;
7003;SDS011;3542;48.812;9.146;2022-08-19T05:03:46;30.77;;;25.90;;
7003;SDS011;3542;48.812;9.146;2022-08-19T05:06:13;37.80;;;27.87;;
7003;SDS011;3542;48.812;9.146;2022-08-19T05:08:40;32.90;;;25.30;;
7003;SDS011;3542;48.812;9.146;2022-08-19T05:11:21;32.53;;;28.23;;
7003;SDS011;3542;48.812;9.146;2022-08-19T05:13:50;29.63;;;25.27;;
7003;SDS011;3542;48.812;9.146;2022-08-19T05:16:17;36.20;;;27.10;;
7003;SDS011;3542;48.812;9.146;2022-08-19T05:18:44;34.97;;;26.60;;
7003;SDS011;3542;48.812;9.146;2022-08-19T05:21:29;34.37;;;27.53;;
7003;SDS011;3542;48.812;9.146;2022-08-19T05:24:14;30.57;;;25.70;;
7003;SDS011;3542;48.812;9.146;2022-08-19T05:26:43;30.10;;;26.80;;
7003;SDS011;3542;48.812;9.146;2022-08-19T05:29:12;32.70;;;25.90;;
7003;SDS011;3542;48.812;9.146;2022-08-19T05:31:39;30.87;;;26.47;;
7003;SDS011;3542;48.812;9.146;2022-08-19T05:34:05;31.57;;;25.63;;
7003;SDS011;3542;48.812;9.146;2022-08-19T05:36:33;38.43;;;26.90;;
7003;SDS011;3542;48.812;9.146;2022-08-19T05:39:11;37.00;;;26.27;;
7003;SDS011;3542;48.812;9.146;2022-08-19T05:41:47;30.50;;;26.50;;
7003;SDS011;3542;48.812;9.146;2022-08-19T05:44:15;31.10;;;26.20;;
7003;SDS011;3542;48.812;9.146;2022-08-19T05:46:42;30.27;;;24.97;;
7003;SDS011;3542;48.812;9.146;2022-08-19T05:49:12;35.13;;;27.47;;
7003;SDS011;3542;48.812;9.146;2022-08-19T05:51:38;39.40;;;31.57;;
7003;SDS011;3542;48.812;9.146;2022-08-19T05:54:05;34.53;;;27.80;;
7003;SDS011;3542;48.812;9.146;2022-08-19T05:56:32;32.27;;;28.47;;
7003;SDS011;3542;48.812;9.146;2022-08-19T05:59:02;35.40;;;27.80;;
7003;SDS011;3542;48.812;9.146;2022-08-19T06:01:32;30.87;;;25.17;;
7003;SDS011;3542;48.812;9.146;2022-08-19T06:03:57;28.90;;;24.10;;
7003;SDS011;3542;48.812;9.146;2022-08-19T06:06:23;36.80;;;28.87;;
7003;SDS011;3542;48.812;9.146;2022-08-19T06:08:48;34.93;;;27.87;;
7003;SDS011;3542;48.812;9.146;2022-08-19T06:13:43;37.70;;;26.67;;
7003;SDS011;3542;48.812;9.146;2022-08-19T06:16:12;38.03;;;26.40;;
7003;SDS011;3542;48.812;9.146;2022-08-19T06:18:37;34.10;;;25.30;;
7003;SDS011;3542;48.812;9.146;2022-08-19T06:21:03;33.27;;;26.10;;
7003;SDS011;3542;48.812;9.146;2022-08-19T06:23:29;31.90;;;25.50;;
7003;SDS011;3542;48.812;9.146;2022-08-19T06:25:55;35.20;;;25.20;;
7003;SDS011;3542;48.812;9.146;2022-08-19T06:28:20;36.13;;;25.90;;
7003;SDS011;3542;48.812;9.146;2022-08-19T06:30:48;35.23;;;25.90;;
7003;SDS011;3542;48.812;9.146;2022-08-19T06:33:14;31.40;;;24.87;;
7003;SDS011;3542;48.812;9.146;2022-08-19T06:35:40;30.60;;;25.40;;
7003;SDS011;3542;48.812;9.146;2022-08-19T06:38:06;28.60;;;23.60;;
7003;SDS011;3542;48.812;9.146;2022-08-19T06:40:31;31.50;;;26.33;;
7003;SDS011;3542;48.812;9.146;2022-08-19T06:42:57;34.83;;;26.50;;
7003;SDS011;3542;48.812;9.146;2022-08-19T06:45:24;30.73;;;25.70;;
7003;SDS011;3542;48.812;9.146;2022-08-19T06:47:51;34.37;;;26.90;;
7003;SDS011;3542;48.812;9.146;2022-08-19T06:50:19;32.70;;;27.07;;
7003;SDS011;3542;48.812;9.146;2022-08-19T06:52:44;31.57;;;25.90;;
7003;SDS011;3542;48.812;9.146;2022-08-19T06:55:10;33.83;;;25.90;;
7003;SDS011;3542;48.812;9.146;2022-08-19T06:57:36;32.93;;;25.57;;
7003;SDS011;3542;48.812;9.146;2022-08-19T07:00:02;33.40;;;27.77;;
7003;SDS011;3542;48.812;9.146;2022-08-19T07:02:29;34.87;;;28.27;;
7003;SDS011;3542;48.812;9.146;2022-08-19T07:04:55;35.70;;;27.33;;
7003;SDS011;3542;48.812;9.146;2022-08-19T07:07:23;35.83;;;27.90;;
7003;SDS011;3542;48.812;9.146;2022-08-19T07:09:50;32.77;;;26.27;;
7003;SDS011;3542;48.812;9.146;2022-08-19T07:12:17;35.10;;;27.50;;
7003;SDS011;3542;48.812;9.146;2022-08-19T07:14:43;34.10;;;26.83;;
7003;SDS011;3542;48.812;9.146;2022-08-19T07:17:11;37.33;;;26.63;;
7003;SDS011;3542;48.812;9.146;2022-08-19T07:19:38;33.43;;;26.00;;
7003;SDS011;3542;48.812;9.146;2022-08-19T07:22:05;29.67;;;25.70;;
7003;SDS011;3542;48.812;9.146;2022-08-19T07:24:32;28.70;;;24.90;;
7003;SDS011;3542;48.812;9.146;2022-08-19T07:26:59;28.90;;;25.50;;
7003;SDS011;3542;48.812;9.146;2022-08-19T07:29:28;31.20;;;25.37;;
7003;SDS011;3542;48.812;9.146;2022-08-19T07:31:55;33.87;;;25.07;;
7003;SDS011;3542;48.812;9.146;2022-08-19T07:34:23;33.03;;;25.33;;
7003;SDS011;3542;48.812;9.146;2022-08-19T07:36:50;30.03;;;24.33;;
7003;SDS011;3542;48.812;9.146;2022-08-19T07:39:19;27.57;;;24.10;;
7003;SDS011;3542;48.812;9.146;2022-08-19T07:41:47;32.83;;;25.47;;
7003;SDS011;3542;48.812;9.146;2022-08-19T07:44:13;26.90;;;23.17;;
7003;SDS011;3542;48.812;9.146;2022-08-19T07:46:41;28.60;;;24.00;;
7003;SDS011;3542;48.812;9.146;2022-08-19T07:49:09;28.60;;;24.60;;
7003;SDS011;3542;48.812;9.146;2022-08-19T07:51:44;27.30;;;23.70;;
7003;SDS011;3542;48.812;9.146;2022-08-19T07:54:10;27.60;;;23.77;;
7003;SDS011;3542;48.812;9.146;2022-08-19T07:56:36;30.57;;;23.57;;
7003;SDS011;3542;48.812;9.146;2022-08-19T07:59:02;26.83;;;22.83;;
7003;SDS011;3542;48.812;9.146;2022-08-19T08:01:27;27.03;;;23.00;;
7003;SDS011;3542;48.812;9.146;2022-08-19T08:03:53;27.30;;;24.30;;
7003;SDS011;3542;48.812;9.146;2022-08-19T08:06:39;26.93;;;22.90;;
7003;SDS011;3542;48.812;9.146;2022-08-19T08:09:27;27.67;;;22.30;;
7003;SDS011;3542;48.812;9.146;2022-08-19T08:12:05;24.80;;;20.70;;
7003;SDS011;3542;48.812;9.146;2022-08-19T08:14:51;25.33;;;21.70;;
7003;SDS011;3542;48.812;9.146;2022-08-19T08:17:19;29.83;;;22.30;;
7003;SDS011;3542;48.812;9.146;2022-08-19T08:19:46;25.77;;;20.80;;
7003;SDS011;3542;48.812;9.146;2022-08-19T08:22:13;27.63;;;22.13;;
7003;SDS011;3542;48.812;9.146;2022-08-19T08:25:02;25.60;;;20.97;;
7003;SDS011;3542;48.812;9.146;2022-08-19T08:27:29;33.63;;;24.30;;
7003;SDS011;3542;48.812;9.146;2022-08-19T08:29:55;28.23;;;21.80;;
7003;SDS011;3542;48.812;9.146;2022-08-19T08:32:22;27.30;;;22.10;;
7003;SDS011;3542;48.812;9.146;2022-08-19T08:34:47;26.40;;;21.37;;
7003;SDS011;3542;48.812;9.146;2022-08-19T08:37:13;26.67;;;21.77;;
7003;SDS011;3542;48.812;9.146;2022-08-19T08:39:39;27.80;;;20.87;;
7003;SDS011;3542;48.812;9.146;2022-08-19T08:42:11;30.77;;;22.23;;
7003;SDS011;3542;48.812;9.146;2022-08-19T08:44:40;24.60;;;20.90;;
7003;SDS011;3542;48.812;9.146;2022-08-19T08:47:16;31.80;;;23.40;;
7003;SDS011;3542;48.812;9.146;2022-08-19T08:49:48;27.13;;;21.90;;
7003;SDS011;3542;48.812;9.146;2022-08-19T08:52:20;28.70;;;23.80;;
7003;SDS011;3542;48.812;9.146;2022-08-19T08:54:49;32.60;;;21.20;;
7003;SDS011;3542;48.812;9.146;2022-08-19T08:57:21;25.37;;;22.63;;
7003;SDS011;3542;48.812;9.146;2022-08-19T08:59:49;29.10;;;22.50;;
7003;SDS011;3542;48.812;9.146;2022-08-19T09:02:18;27.53;;;22.67;;
7003;SDS011;3542;48.812;9.146;2022-08-19T09:04:44;25.33;;;20.50;;
7003;SDS011;3542;48.812;9.146;2022-08-19T09:16:07;25.40;;;19.80;;
7003;SDS011;3542;48.812;9.146;2022-08-19T09:18:48;23.13;;;19.97;;
7003;SDS011;3542;48.812;9.146;2022-08-19T09:21:20;24.13;;;20.93;;
7003;SDS011;3542;48.812;9.146;2022-08-19T09:23:47;24.27;;;19.67;;
7003;SDS011;3542;48.812;9.146;2022-08-19T09:26:15;22.40;;;19.27;;
7003;SDS011;3542;48.812;9.146;2022-08-19T09:28:43;24.33;;;17.90;;
7003;SDS011;3542;48.812;9.146;2022-08-19T09:31:15;20.73;;;18.53;;
7003;SDS011;3542;48.812;9.146;2022-08-19T09:33:43;22.30;;;17.97;;
7003;SDS011;3542;48.812;9.146;2022-08-19T09:36:09;20.73;;;18.53;;
7003;SDS011;3542;48.812;9.146;2022-08-19T09:38:36;20.40;;;18.17;;
7003;SDS011;3542;48.812;9.146;2022-08-19T09:41:07;19.30;;;17.17;;
7003;SDS011;3542;48.812;9.146;2022-08-19T09:43:36;20.03;;;17.47;;
7003;SDS011;3542;48.812;9.146;2022-08-19T09:46:02;19.70;;;17.60;;
7003;SDS011;3542;48.812;9.146;2022-08-19T09:48:31;22.87;;;18.27;;
7003;SDS011;3542;48.812;9.146;2022-08-19T09:51:31;20.73;;;16.73;;
7003;SDS011;3542;48.812;9.146;2022-08-19T09:53:51;22.60;;;17.07;;
7003;SDS011;3542;48.812;9.146;2022-08-19T09:56:19;18.43;;;16.50;;
7003;SDS011;3542;48.812;9.146;2022-08-19T09:58:46;24.13;;;19.60;;
7003;SDS011;3542;48.812;9.146;2022-08-19T10:01:16;18.80;;;16.80;;
7003;SDS011;3542;48.812;9.146;2022-08-19T10:03:53;19.10;;;16.53;;
7003;SDS011;3542;48.812;9.146;2022-08-19T10:06:21;22.80;;;17.10;;
7003;SDS011;3542;48.812;9.146;2022-08-19T10:08:50;24.50;;;15.53;;
7003;SDS011;3542;48.812;9.146;2022-08-19T10:11:17;18.40;;;16.43;;
7003;SDS011;3542;48.812;9.146;2022-08-19T10:13:45;21.00;;;17.27;;
7003;SDS011;3542;48.812;9.146;2022-08-19T10:16:13;17.50;;;15.83;;
7003;SDS011;3542;48.812;9.146;2022-08-19T10:18:40;24.13;;;15.37;;
7003;SDS011;3542;48.812;9.146;2022-08-19T10:21:12;17.83;;;14.50;;
7003;SDS011;3542;48.812;9.146;2022-08-19T10:23:41;23.20;;;15.50;;
7003;SDS011;3542;48.812;9.146;2022-08-19T10:26:10;19.13;;;14.20;;
7003;SDS011;3542;48.812;9.146;2022-08-19T10:28:40;22.03;;;14.70;;
7003;SDS011;3542;48.812;9.146;2022-08-19T10:31:07;15.40;;;13.70;;
7003;SDS011;3542;48.812;9.146;2022-08-19T10:33:34;14.80;;;12.57;;
7003;SDS011;3542;48.812;9.146;2022-08-19T10:36:05;21.83;;;14.10;;
7003;SDS011;3542;48.812;9.146;2022-08-19T10:38:33;17.30;;;15.07;;
7003;SDS011;3542;48.812;9.146;2022-08-19T10:41:06;15.63;;;14.00;;
7003;SDS011;3542;48.812;9.146;2022-08-19T10:43:33;18.73;;;12.20;;
7003;SDS011;3542;48.812;9.146;2022-08-19T10:46:02;17.23;;;12.93;;
7003;SDS011;3542;48.812;9.146;2022-08-19T10:48:28;14.10;;;12.43;;
7003;SDS011;3542;48.812;9.146;2022-08-19T10:50:54;17.50;;;12.87;;
7003;SDS011;3542;48.812;9.146;2022-08-19T10:53:40;17.90;;;12.83;;
7003;SDS011;3542;48.812;9.146;2022-08-19T10:56:06;13.20;;;11.80;;
7003;SDS011;3542;48.812;9.146;2022-08-19T10:58:49;13.60;;;11.17;;
7003;SDS011;3542;48.812;9.146;2022-08-19T11:01:15;16.33;;;12.03;;
7003;SDS011;3542;48.812;9.146;2022-08-19T11:03:41;12.83;;;10.97;;
7003;SDS011;3542;48.812;9.146;2022-08-19T11:06:07;14.13;;;12.30;;
7003;SDS011;3542;48.812;9.146;2022-08-19T11:08:33;18.10;;;12.33;;
7003;SDS011;3542;48.812;9.146;2022-08-19T11:11:02;13.10;;;11.10;;
7003;SDS011;3542;48.812;9.146;2022-08-19T11:13:29;12.20;;;10.73;;
7003;SDS011;3542;48.812;9.146;2022-08-19T11:15:59;11.40;;;10.20;;
7003;SDS011;3542;48.812;9.146;2022-08-19T11:18:27;20.37;;;11.03;;
7003;SDS011;3542;48.812;9.146;2022-08-19T11:20:53;15.30;;;10.93;;
7003;SDS011;3542;48.812;9.146;2022-08-19T11:23:18;12.70;;;10.80;;
7003;SDS011;3542;48.812;9.146;2022-08-19T11:25:44;12.43;;;10.70;;
7003;SDS011;3542;48.812;9.146;2022-08-19T11:28:10;9.57;;;8.67;;
7003;SDS011;3542;48.812;9.146;2022-08-19T11:30:37;10.57;;;9.57;;
7003;SDS011;3542;48.812;9.146;2022-08-19T11:33:03;10.70;;;9.70;;
7003;SDS011;3542;48.812;9.146;2022-08-19T11:35:28;11.90;;;10.77;;
7003;SDS011;3542;48.812;9.146;2022-08-19T11:37:54;10.93;;;9.83;;
7003;SDS011;3542;48.812;9.146;2022-08-19T11:40:22;11.80;;;10.60;;
7003;SDS011;3542;48.812;9.146;2022-08-19T11:42:48;10.97;;;9.87;;
7003;SDS011;3542;48.812;9.146;2022-08-19T11:45:22;9.93;;;9.03;;
7003;SDS011;3542;48.812;9.146;2022-08-19T11:47:49;10.97;;;10.00;;
7003;SDS011;3542;48.812;9.146;2022-08-19T11:50:15;12.17;;;10.93;;
7003;SDS011;3542;48.812;9.146;2022-08-19T11:52:41;12.00;;;10.23;;
7003;SDS011;3542;48.812;9.146;2022-08-19T11:55:07;10.00;;;9.00;;
7003;SDS011;3542;48.812;9.146;2022-08-19T11:57:33;10.30;;;9.10;;
7003;SDS011;3542;48.812;9.146;2022-08-19T11:59:58;13.87;;;10.50;;
7003;SDS011;3542;48.812;9.146;2022-08-19T12:02:24;13.20;;;10.43;;
7003;SDS011;3542;48.812;9.146;2022-08-19T12:04:50;11.60;;;9.97;;
7003;SDS011;3542;48.812;9.146;2022-08-19T12:07:15;14.90;;;9.57;;
7003;SDS011;3542;48.812;9.146;2022-08-19T12:09:41;12.43;;;9.40;;
7003;SDS011;3542;48.812;9.146;2022-08-19T12:12:07;12.53;;;11.33;;
7003;SDS011;3542;48.812;9.146;2022-08-19T12:14:33;11.47;;;9.10;;
7003;SDS011;3542;48.812;9.146;2022-08-19T12:16:59;12.97;;;9.67;;
7003;SDS011;3542;48.812;9.146;2022-08-19T12:19:25;9.97;;;9.17;;
7003;SDS011;3542;48.812;9.146;2022-08-19T12:21:51;18.13;;;10.07;;
7003;SDS011;3542;48.812;9.146;2022-08-19T12:24:18;16.43;;;9.40;;
7003;SDS011;3542;48.812;9.146;2022-08-19T12:26:48;13.77;;;10.47;;
7003;SDS011;3542;48.812;9.146;2022-08-19T12:29:15;12.37;;;9.40;;
7003;SDS011;3542;48.812;9.146;2022-08-19T12:31:40;9.40;;;8.60;;
7003;SDS011;3542;48.812;9.146;2022-08-19T12:34:06;10.47;;;8.57;;
7003;SDS011;3542;48.812;9.146;2022-08-19T12:36:32;12.40;;;10.50;;
7003;SDS011;3542;48.812;9.146;2022-08-19T12:38:58;10.37;;;8.50;;
7003;SDS011;3542;48.812;9.146;2022-08-19T12:41:24;14.27;;;9.60;;
7003;SDS011;3542;48.812;9.146;2022-08-19T12:43:50;15.23;;;9.50;;
7003;SDS011;3542;48.812;9.146;2022-08-19T12:46:16;10.90;;;9.90;;
7003;SDS011;3542;48.812;9.146;2022-08-19T12:48:43;10.57;;;9.27;;
7003;SDS011;3542;48.812;9.146;2022-08-19T12:51:12;11.00;;;9.43;;
7003;SDS011;3542;48.812;9.146;2022-08-19T12:53:39;13.63;;;9.40;;
7003;SDS011;3542;48.812;9.146;2022-08-19T12:56:06;10.10;;;9.13;;
7003;SDS011;3542;48.812;9.146;2022-08-19T12:58:33;8.47;;;7.67;;
7003;SDS011;3542;48.812;9.146;2022-08-19T13:00:59;9.20;;;8.30;;
7003;SDS011;3542;48.812;9.146;2022-08-19T13:03:30;9.03;;;8.13;;
7003;SDS011;3542;48.812;9.146;2022-08-19T13:05:56;10.10;;;8.00;;
7003;SDS011;3542;48.812;9.146;2022-08-19T13:08:22;9.33;;;7.20;;
7003;SDS011;3542;48.812;9.146;2022-08-19T13:10:47;10.20;;;7.27;;
7003;SDS011;3542;48.812;9.146;2022-08-19T13:13:13;9.00;;;8.30;;
7003;SDS011;3542;48.812;9.146;2022-08-19T13:15:39;10.43;;;9.10;;
7003;SDS011;3542;48.812;9.146;2022-08-19T13:18:06;9.83;;;8.13;;
7003;SDS011;3542;48.812;9.146;2022-08-19T13:20:34;18.17;;;10.10;;
7003;SDS011;3542;48.812;9.146;2022-08-19T13:23:01;16.23;;;12.47;;
7003;SDS011;3542;48.812;9.146;2022-08-19T13:25:26;13.77;;;11.00;;
7003;SDS011;3542;48.812;9.146;2022-08-19T13:27:52;12.47;;;11.13;;
7003;SDS011;3542;48.812;9.146;2022-08-19T13:30:18;12.73;;;11.53;;
7003;SDS011;3542;48.812;9.146;2022-08-19T13:33:03;17.17;;;12.97;;
7003;SDS011;3542;48.812;9.146;2022-08-19T13:35:35;17.53;;;13.70;;
7003;SDS011;3542;48.812;9.146;2022-08-19T13:38:01;19.83;;;15.20;;
7003;SDS011;3542;48.812;9.146;2022-08-19T13:40:29;23.57;;;16.57;;
7003;SDS011;3542;48.812;9.146;2022-08-19T13:42:56;23.93;;;17.17;;
7003;SDS011;3542;48.812;9.146;2022-08-19T13:45:23;26.60;;;17.90;;
7003;SDS011;3542;48.812;9.146;2022-08-19T13:47:51;21.77;;;17.40;;
7003;SDS011;3542;48.812;9.146;2022-08-19T13:50:20;25.77;;;21.17;;
7003;SDS011;3542;48.812;9.146;2022-08-19T13:52:50;29.10;;;24.70;;
7003;SDS011;3542;48.812;9.146;2022-08-19T13:55:17;29.10;;;24.30;;
7003;SDS011;3542;48.812;9.146;2022-08-19T13:57:43;33.60;;;24.93;;
7003;SDS011;3542;48.812;9.146;2022-08-19T14:00:10;34.17;;;27.47;;
7003;SDS011;3542;48.812;9.146;2022-08-19T14:02:43;34.60;;;27.80;;
7003;SDS011;3542;48.812;9.146;2022-08-19T14:05:10;34.60;;;29.70;;
7003;SDS011;3542;48.812;9.146;2022-08-19T14:07:38;34.20;;;26.13;;
7003;SDS011;3542;48.812;9.146;2022-08-19T14:10:05;37.60;;;30.10;;
7003;SDS011;3542;48.812;9.146;2022-08-19T14:12:33;33.67;;;28.13;;
7003;SDS011;3542;48.812;9.146;2022-08-19T14:14:58;44.97;;;28.87;;
7003;SDS011;3542;48.812;9.146;2022-08-19T14:17:25;32.80;;;28.87;;
7003;SDS011;3542;48.812;9.146;2022-08-19T14:19:57;33.60;;;27.30;;
7003;SDS011;3542;48.812;9.146;2022-08-19T14:22:24;33.13;;;26.60;;
7003;SDS011;3542;48.812;9.146;2022-08-19T14:24:49;27.80;;;23.30;;
7003;SDS011;3542;48.812;9.146;2022-08-19T14:27:15;28.17;;;23.10;;
7003;SDS011;3542;48.812;9.146;2022-08-19T14:29:41;28.30;;;23.83;;
7003;SDS011;3542;48.812;9.146;2022-08-19T14:32:06;26.47;;;21.30;;
7003;SDS011;3542;48.812;9.146;2022-08-19T14:34:32;27.13;;;21.60;;
7003;SDS011;3542;48.812;9.146;2022-08-19T14:36:58;23.83;;;20.20;;
7003;SDS011;3542;48.812;9.146;2022-08-19T14:39:24;21.37;;;19.00;;
7003;SDS011;3542;48.812;9.146;2022-08-19T14:41:50;24.80;;;20.50;;
7003;SDS011;3542;48.812;9.146;2022-08-19T14:44:15;23.23;;;18.70;;
7003;SDS011;3542;48.812;9.146;2022-08-19T14:46:41;25.60;;;20.23;;
7003;SDS011;3542;48.812;9.146;2022-08-19T14:49:07;22.50;;;20.20;;
7003;SDS011;3542;48.812;9.146;2022-08-19T14:51:32;23.40;;;19.63;;
7003;SDS011;3542;48.812;9.146;2022-08-19T14:53:58;21.10;;;18.13;;
7003;SDS011;3542;48.812;9.146;2022-08-19T14:56:26;21.07;;;17.90;;
7003;SDS011;3542;48.812;9.146;2022-08-19T14:58:54;22.60;;;18.90;;
7003;SDS011;3542;48.812;9.146;2022-08-19T15:01:22;20.93;;;18.77;;
7003;SDS011;3542;48.812;9.146;2022-08-19T15:03:49;22.30;;;18.07;;
7003;SDS011;3542;48.812;9.146;2022-08-19T15:06:17;19.63;;;17.63;;
7003;SDS011;3542;48.812;9.146;2022-08-19T15:08:43;18.47;;;16.43;;
7003;SDS011;3542;48.812;9.146;2022-08-19T15:11:13;18.70;;;16.90;;
7003;SDS011;3542;48.812;9.146;2022-08-19T15:13:41;18.20;;;16.30;;
7003;SDS011;3542;48.812;9.146;2022-08-19T15:16:08;16.73;;;14.90;;
7003;SDS011;3542;48.812;9.146;2022-08-19T15:18:34;16.07;;;14.33;;
7003;SDS011;3542;48.812;9.146;2022-08-19T15:21:01;18.47;;;15.70;;
7003;SDS011;3542;48.812;9.146;2022-08-19T15:23:28;15.57;;;14.07;;
7003;SDS011;3542;48.812;9.146;2022-08-19T15:25:54;17.53;;;15.70;;
7003;SDS011;3542;48.812;9.146;2022-08-19T15:28:22;17.27;;;15.40;;
7003;SDS011;3542;48.812;9.146;2022-08-19T15:30:49;19.60;;;16.37;;
7003;SDS011;3542;48.812;9.146;2022-08-19T15:33:15;21.30;;;15.40;;
7003;SDS011;3542;48.812;9.146;2022-08-19T15:35:45;18.30;;;16.63;;
7003;SDS011;3542;48.812;9.146;2022-08-19T15:38:12;21.60;;;18.20;;
7003;SDS011;3542;48.812;9.146;2022-08-19T15:40:38;17.50;;;15.63;;
7003;SDS011;3542;48.812;9.146;2022-08-19T15:43:05;18.93;;;16.93;;
7003;SDS011;3542;48.812;9.146;2022-08-19T15:45:30;16.37;;;14.73;;
7003;SDS011;3542;48.812;9.146;2022-08-19T15:47:59;18.90;;;16.77;;
7003;SDS011;3542;48.812;9.146;2022-08-19T15:50:26;20.23;;;14.67;;
7003;SDS011;3542;48.812;9.146;2022-08-19T15:52:54;23.87;;;16.37;;
7003;SDS011;3542;48.812;9.146;2022-08-19T15:55:23;27.90;;;18.30;;
7003;SDS011;3542;48.812;9.146;2022-08-19T15:57:51;22.07;;;19.07;;
7003;SDS011;3542;48.812;9.146;2022-08-19T16:00:35;20.77;;;18.60;;
7003;SDS011;3542;48.812;9.146;2022-08-19T16:03:19;20.50;;;18.43;;
7003;SDS011;3542;48.812;9.146;2022-08-19T16:06:03;19.47;;;17.40;;
7003;SDS011;3542;48.812;9.146;2022-08-19T16:08:48;19.97;;;17.97;;
7003;SDS011;3542;48.812;9.146;2022-08-19T16:11:16;19.07;;;17.07;;
7003;SDS011;3542;48.812;9.146;2022-08-19T16:13:45;20.30;;;18.10;;
7003;SDS011;3542;48.812;9.146;2022-08-19T16:16:15;19.93;;;18.03;;
7003;SDS011;3542;48.812;9.146;2022-08-19T16:18:55;19.50;;;17.70;;
7003;SDS011;3542;48.812;9.146;2022-08-19T16:21:22;22.23;;;19.93;;
7003;SDS011;3542;48.812;9.146;2022-08-19T16:23:50;24.17;;;20.77;;
7003;SDS011;3542;48.812;9.146;2022-08-19T16:26:16;25.33;;;21.30;;
7003;SDS011;3542;48.812;9.146;2022-08-19T16:28:43;23.17;;;20.80;;
7003;SDS011;3542;48.812;9.146;2022-08-19T16:31:10;25.23;;;21.47;;
7003;SDS011;3542;48.812;9.146;2022-08-19T16:33:37;28.07;;;24.07;;
7003;SDS011;3542;48.812;9.146;2022-08-19T16:36:03;28.43;;;23.90;;
7003;SDS011;3542;48.812;9.146;2022-08-19T16:38:30;28.17;;;24.17;;